Yahk, Canada
Current Conditions -  °F | °C
As of 3:15 PM on Wednesday 22 Oct 2014 (Local Time) from K65S Reporting Station
Broken Clouds Broken Clouds  
Wind Chill: 50°   Ceiling: 4100
Heat Index: 50°   Visibility: 10mi
Dew Point: 45°   Wind: 5mph
Humidity: 82%   Direction: 230°SW
Pressure: 29.89"   Gusts: NA
Location:  49.08°N, 116.1°W
Report Text: K65S 222215Z AUTO 23004KT 10SM BKN041 10/07 A2989 RMK AO2
Loading
Personal Weather Stations






























Interactive Weather Map
Tropical Storm Tracking
New forecast layout! Learn more

10-Day Weather Forecast

Advertisements
Track Severe Weather on mobile